Time;durP1;ratioP1;P1;durP2;ratioP2;P2;SDS_P1;SDS_P2;PMS_P1;PMS_P2;Temp;Humidity;BMP_temperature;BMP_pressure;BME280_temperature;BME280_humidity;BME280_pressure;Samples;Min_cycle;Max_cycle;Signal;HPM_P1;HPM_P2
2023/06/03 00:00:29;;;;;;;10.32;6.35;;;;;;;19.06;56.84;99045.34;4344109;33;33428;-82
2023/06/03 00:02:57;;;;;;;10.93;5.68;;;;;;;19.06;56.95;99040.09;4339989;32;34068;-85
2023/06/03 00:05:24;;;;;;;10.80;6.47;;;;;;;19.02;57.10;99048.94;4330150;33;33759;-86
2023/06/03 00:07:52;;;;;;;14.48;6.30;;;;;;;19.02;56.58;99053.34;4343847;33;34301;-86
2023/06/03 00:10:20;;;;;;;9.80;5.95;;;;;;;18.90;56.36;99052.72;4346088;33;33915;-86
2023/06/03 00:12:47;;;;;;;12.73;5.82;;;;;;;19.01;55.76;99057.69;4345808;33;34118;-85
2023/06/03 00:15:15;;;;;;;13.10;6.28;;;;;;;19.07;55.75;99056.72;4345855;32;33669;-85
2023/06/03 00:17:42;;;;;;;10.48;6.25;;;;;;;19.03;56.12;99057.69;4345518;33;34480;-86
2023/06/03 00:20:10;;;;;;;12.48;5.95;;;;;;;19.10;55.77;99062.75;4332097;33;33469;-83
2023/06/03 00:22:38;;;;;;;10.73;6.20;;;;;;;19.02;55.43;99055.97;4340301;32;34061;-84
2023/06/03 00:25:07;;;;;;;10.20;5.95;;;;;;;18.90;55.49;99064.97;4335364;33;33788;-86
2023/06/03 00:27:35;;;;;;;11.48;5.93;;;;;;;19.08;55.42;99063.69;4344814;33;33700;-86
2023/06/03 00:30:04;;;;;;;14.02;5.82;;;;;;;19.10;55.31;99056.63;4337280;33;33503;-85
2023/06/03 00:32:32;;;;;;;8.43;5.75;;;;;;;19.14;55.36;99063.56;4339789;32;34975;-85
2023/06/03 00:35:00;;;;;;;13.65;6.22;;;;;;;18.98;55.79;99072.66;4318297;33;33578;-85
2023/06/03 00:37:27;;;;;;;13.20;6.43;;;;;;;18.87;55.48;99071.16;4330159;33;33607;-85
2023/06/03 00:39:55;;;;;;;11.80;6.18;;;;;;;18.74;56.16;99081.97;4342893;33;33540;-83
2023/06/03 00:42:23;;;;;;;15.00;7.05;;;;;;;18.76;55.73;99086.28;4343451;32;34061;-86
2023/06/03 00:44:51;;;;;;;12.30;6.22;;;;;;;18.73;55.83;99078.47;4334696;32;33833;-85
2023/06/03 00:47:20;;;;;;;12.95;6.62;;;;;;;18.79;55.64;99085.34;4340741;32;33201;-86
2023/06/03 00:49:48;;;;;;;10.95;5.82;;;;;;;18.80;55.52;99082.69;4345512;33;33992;-82
2023/06/03 00:52:16;;;;;;;11.40;6.05;;;;;;;18.60;55.74;99083.09;4345425;33;34055;-84
2023/06/03 00:54:47;;;;;;;11.40;6.65;;;;;;;18.53;56.08;99081.50;4332218;33;33682;-83
2023/06/03 00:57:15;;;;;;;10.98;6.53;;;;;;;18.48;56.12;99084.19;4331356;33;33881;-84
2023/06/03 00:59:43;;;;;;;13.27;6.35;;;;;;;18.64;56.04;99081.28;4345354;33;33909;-83
2023/06/03 01:02:12;;;;;;;15.45;6.35;;;;;;;18.45;56.62;99088.69;4331754;33;32508;-83
2023/06/03 01:04:42;;;;;;;15.00;6.20;;;;;;;18.56;56.47;99083.19;4331520;33;32940;-85
2023/06/03 01:07:16;;;;;;;14.90;6.30;;;;;;;18.45;56.17;99079.03;4346317;33;34466;-83
2023/06/03 01:10:09;;;;;;;13.25;6.20;;;;;;;18.32;56.55;99089.81;4347203;33;34964;-82
2023/06/03 01:13:16;;;;;;;9.65;5.97;;;;;;;18.34;56.66;99075.75;4346821;33;34156;-86
2023/06/03 01:15:45;;;;;;;14.18;6.60;;;;;;;18.26;56.93;99082.94;4333429;33;34590;-87
2023/06/03 01:18:14;;;;;;;10.38;6.15;;;;;;;18.18;57.25;99080.47;4333085;33;34105;-86
2023/06/03 01:20:42;;;;;;;12.23;6.50;;;;;;;18.05;57.77;99084.19;4339861;33;33810;-86
2023/06/03 01:23:12;;;;;;;10.77;6.97;;;;;;;18.20;57.14;99080.41;4347134;32;35024;-86
2023/06/03 01:25:41;;;;;;;14.07;6.97;;;;;;;18.11;57.04;99091.09;4346726;33;34525;-87
2023/06/03 01:28:09;;;;;;;11.68;6.75;;;;;;;17.87;58.06;99092.41;4333309;33;33331;-85
2023/06/03 01:30:37;;;;;;;13.40;6.68;;;;;;;17.95;58.17;99093.13;4333427;33;34745;-83
2023/06/03 01:33:05;;;;;;;16.80;6.90;;;;;;;17.82;58.37;99091.63;4333027;33;33700;-87
2023/06/03 01:35:33;;;;;;;11.02;7.10;;;;;;;17.83;58.44;99088.97;4344009;33;33941;-83
2023/06/03 01:38:01;;;;;;;13.00;6.72;;;;;;;17.80;58.22;99093.41;4320523;33;34363;-85
2023/06/03 01:40:30;;;;;;;11.00;7.30;;;;;;;17.84;58.23;99095.97;4347581;32;33847;-83
2023/06/03 01:42:57;;;;;;;15.60;6.95;;;;;;;17.94;58.11;99096.63;4353625;32;34152;-85
2023/06/03 01:45:25;;;;;;;13.10;6.75;;;;;;;17.90;58.48;99095.84;4333653;33;34451;-85
2023/06/03 01:47:55;;;;;;;12.25;6.50;;;;;;;17.88;57.74;99096.75;4347036;33;33725;-81
2023/06/03 01:50:23;;;;;;;14.38;7.10;;;;;;;17.77;58.38;99094.34;4346650;33;34055;-85
2023/06/03 01:52:51;;;;;;;15.77;7.72;;;;;;;17.73;58.49;99100.50;4346602;33;35144;-84
2023/06/03 01:55:19;;;;;;;15.00;7.03;;;;;;;17.76;58.35;99097.81;4320663;33;33871;-82
2023/06/03 01:57:47;;;;;;;11.90;6.80;;;;;;;17.79;58.24;99108.25;4345467;33;33623;-85
2023/06/03 02:00:16;;;;;;;14.73;6.97;;;;;;;17.61;58.52;99104.16;4335726;32;34619;-82
2023/06/03 02:02:43;;;;;;;14.15;6.45;;;;;;;17.60;57.77;99106.81;4355417;32;33972;-87
2023/06/03 02:05:11;;;;;;;14.02;6.80;;;;;;;17.40;57.88;99113.25;4321302;33;34591;-81
2023/06/03 02:07:39;;;;;;;10.95;6.12;;;;;;;17.46;57.64;99120.12;4346431;33;33129;-87
2023/06/03 02:10:07;;;;;;;11.07;6.57;;;;;;;17.56;56.83;99113.88;4320984;33;32368;-86
2023/06/03 02:12:35;;;;;;;11.60;6.03;;;;;;;17.44;57.10;99116.69;4332979;33;35240;-86
2023/06/03 02:15:12;;;;;;;14.38;6.93;;;;;;;17.17;57.51;99123.22;4334410;33;34802;-86
2023/06/03 02:17:40;;;;;;;12.37;6.00;;;;;;;17.02;57.58;99125.16;4346506;33;34445;-86
2023/06/03 02:20:08;;;;;;;12.45;6.93;;;;;;;16.96;58.10;99130.47;4346363;33;34396;-85
2023/06/03 02:22:37;;;;;;;12.68;6.35;;;;;;;17.29;57.11;99122.16;4345493;33;33580;-84
2023/06/03 02:25:06;;;;;;;14.32;6.62;;;;;;;16.78;57.68;99120.25;4332146;33;33610;-85
2023/06/03 02:27:35;;;;;;;17.52;6.80;;;;;;;16.91;57.34;99121.81;4345712;33;33310;-87
2023/06/03 02:30:04;;;;;;;12.73;6.30;;;;;;;16.81;57.49;99125.44;4346492;33;35327;-87
2023/06/03 02:32:32;;;;;;;11.68;6.07;;;;;;;16.98;57.08;99125.25;4346621;33;33899;-83
2023/06/03 02:35:00;;;;;;;11.50;6.00;;;;;;;16.92;56.83;99123.56;4346533;32;33662;-85
2023/06/03 02:37:30;;;;;;;10.38;6.00;;;;;;;16.71;56.67;99127.31;4318746;33;33308;-86
2023/06/03 02:39:58;;;;;;;9.98;6.00;;;;;;;16.67;56.69;99128.22;4331619;33;33999;-86
2023/06/03 02:42:26;;;;;;;10.90;6.40;;;;;;;16.72;56.75;99136.03;4334205;33;34117;-84
2023/06/03 02:44:53;;;;;;;9.85;5.87;;;;;;;16.62;57.25;99134.38;4346306;33;34724;-83
2023/06/03 02:47:22;;;;;;;9.70;5.87;;;;;;;16.96;56.65;99147.94;4353511;32;33518;-85
2023/06/03 02:49:50;;;;;;;12.07;6.55;;;;;;;16.78;57.10;99146.44;4360950;32;34005;-85
2023/06/03 02:52:18;;;;;;;16.00;6.40;;;;;;;16.62;57.49;99142.25;4358708;32;34616;-84
2023/06/03 02:54:45;;;;;;;12.57;6.57;;;;;;;16.63;57.28;99141.34;4332853;33;33371;-84
2023/06/03 02:57:13;;;;;;;11.68;6.20;;;;;;;16.65;56.84;99148.31;4346570;33;33487;-86
2023/06/03 02:59:41;;;;;;;9.98;6.15;;;;;;;16.75;56.09;99156.97;4309003;33;33226;-82
2023/06/03 03:02:09;;;;;;;10.65;5.75;;;;;;;16.63;56.15;99151.81;4332765;33;34140;-83
2023/06/03 03:04:37;;;;;;;11.18;6.12;;;;;;;16.68;56.05;99152.66;4354289;32;33605;-84
2023/06/03 03:07:08;;;;;;;13.18;5.85;;;;;;;16.75;55.70;99151.72;4361124;32;33552;-87
2023/06/03 03:09:37;;;;;;;11.02;6.40;;;;;;;16.49;55.88;99159.84;4361304;32;33919;-86
2023/06/03 03:12:05;;;;;;;11.32;6.47;;;;;;;16.35;56.55;99162.59;4335077;33;34205;-84
2023/06/03 03:14:34;;;;;;;12.90;5.90;;;;;;;16.58;56.09;99161.47;4346751;33;34285;-85
2023/06/03 03:17:02;;;;;;;12.70;6.12;;;;;;;16.71;55.81;99170.94;4346292;33;33342;-85
2023/06/03 03:19:30;;;;;;;14.32;6.32;;;;;;;16.81;55.67;99172.56;4321115;33;33085;-85
2023/06/03 03:21:58;;;;;;;10.80;6.07;;;;;;;16.88;55.86;99176.84;4345615;32;33777;-81
2023/06/03 03:24:27;;;;;;;9.98;5.72;;;;;;;16.94;55.63;99179.41;4332594;33;33127;-84
2023/06/03 03:26:55;;;;;;;11.65;5.60;;;;;;;16.83;55.85;99186.53;4346340;33;32975;-85
2023/06/03 03:29:24;;;;;;;13.48;6.10;;;;;;;16.79;56.00;99184.84;4345276;32;34023;-87
2023/06/03 03:31:53;;;;;;;9.15;5.62;;;;;;;17.00;55.55;99192.41;4332481;33;33734;-85
2023/06/03 03:34:21;;;;;;;12.45;6.07;;;;;;;16.99;55.35;99198.53;4336797;32;35021;-86
2023/06/03 03:36:49;;;;;;;11.12;5.50;;;;;;;16.89;56.03;99191.66;4349702;32;33074;-86
2023/06/03 03:39:17;;;;;;;9.68;5.47;;;;;;;17.17;55.60;99197.44;4345942;32;34420;-85
2023/06/03 03:41:45;;;;;;;11.68;5.57;;;;;;;17.11;55.73;99197.50;4346297;33;33827;-86
2023/06/03 03:44:12;;;;;;;12.02;6.00;;;;;;;17.24;55.18;99206.09;4346402;33;33515;-86
2023/06/03 03:46:48;;;;;;;9.88;5.62;;;;;;;17.30;55.94;99210.38;4332625;33;32218;-84
2023/06/03 03:49:17;;;;;;;12.68;5.70;;;;;;;17.59;55.58;99215.19;4332469;33;34658;-85
2023/06/03 03:51:46;;;;;;;10.77;5.12;;;;;;;17.73;54.16;99214.09;4332586;33;33989;-86
2023/06/03 03:54:15;;;;;;;11.15;5.55;;;;;;;17.97;53.69;99217.25;4333014;32;33865;-83
2023/06/03 03:56:43;;;;;;;9.85;5.25;;;;;;;18.05;53.54;99222.38;4360867;32;33473;-85
2023/06/03 03:59:16;;;;;;;11.45;5.05;;;;;;;18.17;54.14;99225.66;4356437;32;34859;-83
2023/06/03 04:01:43;;;;;;;10.50;5.82;;;;;;;18.37;54.06;99213.94;4345870;33;35009;-85
2023/06/03 04:04:24;;;;;;;9.93;5.10;;;;;;;18.59;53.21;99217.03;4346085;33;33626;-83
2023/06/03 04:06:53;;;;;;;10.70;5.70;;;;;;;18.65;52.71;99217.78;4332488;33;33244;-86
2023/06/03 04:09:21;;;;;;;10.45;5.22;;;;;;;18.82;53.29;99230.59;4320432;33;34636;-85
2023/06/03 04:11:48;;;;;;;9.40;5.40;;;;;;;18.99;52.75;99232.06;4345443;32;34044;-85
2023/06/03 04:14:18;;;;;;;9.82;5.30;;;;;;;19.22;52.31;99227.19;4345682;33;33535;-84
2023/06/03 04:16:56;;;;;;;8.98;5.20;;;;;;;19.31;51.96;99224.34;4332676;33;33163;-84
2023/06/03 04:19:30;;;;;;;12.10;5.90;;;;;;;19.54;51.69;99236.09;4344940;32;33921;-86
2023/06/03 04:21:59;;;;;;;9.37;5.13;;;;;;;19.85;51.32;99231.91;4334130;33;35519;-84
2023/06/03 04:24:28;;;;;;;8.80;4.70;;;;;;;20.22;50.61;99225.72;4338147;32;34148;-84
2023/06/03 04:26:56;;;;;;;9.15;5.12;;;;;;;20.40;50.79;99227.88;4352014;32;33988;-83
2023/06/03 04:29:24;;;;;;;13.73;5.43;;;;;;;20.47;50.04;99233.00;4332174;33;33912;-85
2023/06/03 04:31:51;;;;;;;9.63;5.37;;;;;;;20.49;49.04;99221.53;4345379;33;34284;-85
2023/06/03 04:34:19;;;;;;;11.98;5.45;;;;;;;20.88;47.70;99224.88;4320147;33;33715;-85
2023/06/03 04:36:47;;;;;;;12.65;5.72;;;;;;;21.26;47.56;99222.91;4345070;33;32983;-82
2023/06/03 04:39:17;;;;;;;10.85;5.10;;;;;;;21.38;47.24;99225.19;4345992;33;35177;-84
2023/06/03 04:41:46;;;;;;;9.25;5.35;;;;;;;21.69;45.14;99232.16;4332910;33;34027;-84
2023/06/03 04:44:15;;;;;;;9.18;5.45;;;;;;;21.44;43.46;99231.19;4345681;33;33587;-82
2023/06/03 04:46:45;;;;;;;10.57;4.93;;;;;;;21.90;44.21;99224.50;4339899;32;33093;-86
2023/06/03 04:49:14;;;;;;;9.93;5.32;;;;;;;21.60;43.42;99227.19;4360156;32;33845;-86
2023/06/03 04:51:42;;;;;;;8.90;4.65;;;;;;;21.53;41.74;99228.28;4347057;32;33970;-83
2023/06/03 04:54:10;;;;;;;9.65;4.90;;;;;;;21.74;42.45;99229.38;4360443;32;33216;-85
2023/06/03 04:56:39;;;;;;;11.52;4.93;;;;;;;21.98;42.02;99240.94;4348097;32;33607;-86
2023/06/03 04:59:06;;;;;;;9.95;5.22;;;;;;;21.87;40.66;99242.12;4345296;33;34082;-83
2023/06/03 05:01:36;;;;;;;9.40;5.15;;;;;;;22.08;40.35;99237.91;4345397;33;33822;-85
2023/06/03 05:04:08;;;;;;;10.73;4.95;;;;;;;22.31;41.12;99239.84;4334540;33;33420;-85
2023/06/03 05:06:38;;;;;;;12.80;5.18;;;;;;;22.31;41.26;99239.84;4344752;33;34259;-84
2023/06/03 05:09:09;;;;;;;8.13;4.85;;;;;;;22.11;39.70;99247.53;4332132;33;34095;-85
2023/06/03 05:11:38;;;;;;;11.50;5.47;;;;;;;22.33;40.50;99245.94;4345478;33;34139;-84
2023/06/03 05:14:08;;;;;;;11.73;5.72;;;;;;;22.16;41.11;99258.84;4345167;33;34681;-86
2023/06/03 05:16:36;;;;;;;12.48;5.90;;;;;;;21.29;42.26;99259.72;4344547;33;33913;-85
2023/06/03 05:19:04;;;;;;;12.65;5.43;;;;;;;22.08;41.50;99244.97;4331124;33;33632;-84
2023/06/03 05:21:32;;;;;;;12.20;6.35;;;;;;;22.27;40.50;99238.19;4344511;32;34007;-84
2023/06/03 05:24:00;;;;;;;11.52;5.45;;;;;;;22.24;41.40;99248.88;4344839;33;33420;-86
2023/06/03 05:26:28;;;;;;;10.82;5.32;;;;;;;22.61;39.84;99246.75;4344479;33;34144;-85
2023/06/03 05:28:56;;;;;;;9.27;5.45;;;;;;;22.51;39.34;99249.72;4344728;33;34972;-83
2023/06/03 05:31:24;;;;;;;14.95;5.15;;;;;;;22.27;40.00;99251.41;4344737;33;34706;-82
2023/06/03 05:33:51;;;;;;;9.13;5.15;;;;;;;22.24;40.73;99254.16;4342994;33;34555;-86
2023/06/03 05:36:20;;;;;;;9.38;5.50;;;;;;;22.25;39.91;99263.81;4344482;32;33482;-81
2023/06/03 05:38:48;;;;;;;11.23;4.97;;;;;;;22.36;39.83;99254.69;4348137;32;33879;-82
2023/06/03 05:41:16;;;;;;;14.68;4.93;;;;;;;22.29;39.79;99264.56;4330916;33;33408;-81
2023/06/03 05:43:44;;;;;;;12.85;5.62;;;;;;;22.51;40.82;99264.72;4344556;33;33689;-83
2023/06/03 05:46:11;;;;;;;11.60;5.25;;;;;;;23.00;41.13;99268.31;4344483;33;34246;-84
2023/06/03 05:48:39;;;;;;;9.30;5.03;;;;;;;22.75;40.20;99263.00;4344448;33;33923;-87
2023/06/03 05:51:07;;;;;;;8.48;4.97;;;;;;;22.83;39.83;99271.50;4344693;33;34788;-86
2023/06/03 05:53:37;;;;;;;10.35;5.15;;;;;;;22.91;39.34;99269.47;4332727;32;32672;-86
2023/06/03 05:56:06;;;;;;;10.68;5.40;;;;;;;22.16;42.08;99266.78;4346324;33;34402;-82
2023/06/03 05:58:34;;;;;;;10.05;4.87;;;;;;;22.34;40.08;99266.12;4347118;33;33954;-81
2023/06/03 06:01:02;;;;;;;10.73;5.05;;;;;;;22.46;41.05;99271.91;4346532;32;34121;-86
2023/06/03 06:03:30;;;;;;;11.23;4.75;;;;;;;22.48;40.14;99273.59;4346449;33;34724;-82
2023/06/03 06:05:59;;;;;;;13.18;5.37;;;;;;;23.09;40.21;99278.53;4346486;33;33595;-84
2023/06/03 06:08:28;;;;;;;10.98;5.05;;;;;;;23.13;40.07;99272.22;4333166;33;33379;-83
2023/06/03 06:10:56;;;;;;;11.95;5.68;;;;;;;21.70;41.76;99273.47;4346512;32;33685;-83
2023/06/03 06:13:23;;;;;;;10.48;5.25;;;;;;;22.32;40.96;99275.91;4345499;33;35027;-84
2023/06/03 06:15:59;;;;;;;10.55;5.47;;;;;;;22.62;39.96;99269.63;4346338;33;33960;-83
2023/06/03 06:18:29;;;;;;;12.15;5.80;;;;;;;22.26;40.87;99277.87;4346320;33;33897;-86
2023/06/03 06:20:58;;;;;;;13.23;4.95;;;;;;;22.44;40.41;99273.75;4333542;33;34953;-85
2023/06/03 06:23:26;;;;;;;13.02;5.82;;;;;;;23.08;39.79;99282.09;4346399;33;34098;-87
2023/06/03 06:25:55;;;;;;;11.70;5.40;;;;;;;23.33;39.55;99283.84;4333064;33;33710;-85
2023/06/03 06:28:27;;;;;;;12.52;5.82;;;;;;;23.05;39.23;99288.38;4346744;32;34776;-84
2023/06/03 06:31:01;;;;;;;11.63;5.87;;;;;;;23.48;39.75;99286.75;4333083;33;33632;-84
2023/06/03 06:33:34;;;;;;;13.15;5.30;;;;;;;23.69;38.90;99287.75;4340608;32;33880;-88
2023/06/03 06:36:27;;;;;;;10.23;5.68;;;;;;;23.22;40.48;99287.75;4322827;33;33566;-88
2023/06/03 06:38:55;;;;;;;9.50;4.90;;;;;;;23.70;39.64;99296.56;4318801;33;33500;-83
2023/06/03 06:41:27;;;;;;;10.73;5.57;;;;;;;23.87;39.29;99291.50;4318645;33;33995;-83
2023/06/03 06:43:55;;;;;;;12.60;6.18;;;;;;;23.18;40.06;99301.13;4328549;33;33451;-88
2023/06/03 06:46:26;;;;;;;9.20;5.22;;;;;;;22.38;40.37;99297.72;4319096;33;33915;-88
2023/06/03 06:48:54;;;;;;;12.40;5.37;;;;;;;22.76;41.42;99302.56;4332465;33;33631;-87
2023/06/03 06:51:22;;;;;;;10.45;5.50;;;;;;;22.64;40.07;99303.00;4318076;33;33357;-84
2023/06/03 06:53:53;;;;;;;10.20;4.95;;;;;;;21.56;41.46;99309.97;4333880;33;33797;-86
2023/06/03 06:56:21;;;;;;;10.82;5.85;;;;;;;21.89;41.70;99301.91;4346628;33;33272;-88
2023/06/03 06:58:49;;;;;;;8.90;5.20;;;;;;;21.80;40.71;99308.34;4346906;33;33971;-86
2023/06/03 07:01:17;;;;;;;13.73;4.70;;;;;;;22.75;38.93;99300.00;4334740;33;35002;-88
2023/06/03 07:03:44;;;;;;;10.43;4.78;;;;;;;23.14;39.46;99305.66;4330748;33;34362;-89
2023/06/03 07:06:12;;;;;;;10.88;4.50;;;;;;;23.53;38.85;99302.50;4331928;33;33676;-88
2023/06/03 07:08:41;;;;;;;9.18;4.30;;;;;;;22.94;38.30;99305.53;4330934;33;33700;-86
2023/06/03 07:11:09;;;;;;;9.20;5.18;;;;;;;23.66;38.59;99305.50;4341755;33;34806;-87
2023/06/03 07:13:37;;;;;;;12.73;5.87;;;;;;;23.31;37.88;99308.56;4345433;33;33610;-88
2023/06/03 07:16:06;;;;;;;10.98;5.53;;;;;;;23.01;39.59;99304.41;4329838;33;34191;-87
2023/06/03 07:18:33;;;;;;;10.63;5.45;;;;;;;23.00;40.83;99313.25;4331789;33;34023;-86
2023/06/03 07:21:02;;;;;;;9.10;5.35;;;;;;;23.76;38.28;99317.53;4332039;33;33724;-87
2023/06/03 07:23:30;;;;;;;13.90;5.97;;;;;;;23.88;38.45;99310.88;4331226;33;33986;-88
2023/06/03 07:25:57;;;;;;;13.13;5.30;;;;;;;23.94;38.88;99319.44;4331077;33;33507;-87
2023/06/03 07:28:30;;;;;;;12.57;5.95;;;;;;;23.65;38.14;99315.25;4318203;33;34414;-87
2023/06/03 07:30:59;;;;;;;9.65;5.68;;;;;;;23.48;37.57;99329.09;4326377;33;33705;-88
2023/06/03 07:33:30;;;;;;;12.55;5.68;;;;;;;23.63;38.51;99330.31;4332322;33;34711;-88
2023/06/03 07:36:02;;;;;;;11.18;5.68;;;;;;;22.39;40.09;99331.16;4328710;33;34631;-88
2023/06/03 07:38:42;;;;;;;12.65;5.57;;;;;;;22.50;40.86;99329.03;4346082;33;34700;-89
2023/06/03 07:41:10;;;;;;;10.80;6.05;;;;;;;22.58;41.12;99329.66;4346446;33;34257;-88
2023/06/03 07:43:38;;;;;;;11.82;5.85;;;;;;;23.01;39.84;99334.34;4345457;33;34079;-89
2023/06/03 07:46:07;;;;;;;10.88;6.00;;;;;;;22.93;40.91;99341.69;4346131;33;33361;-87
2023/06/03 07:48:38;;;;;;;11.48;5.57;;;;;;;22.71;41.11;99341.53;4332810;33;34993;-86
2023/06/03 07:51:07;;;;;;;13.27;5.50;;;;;;;23.09;40.78;99339.34;4346220;33;33798;-87
2023/06/03 07:53:39;;;;;;;11.23;5.55;;;;;;;22.77;41.78;99340.47;4346046;32;33628;-82
2023/06/03 07:56:11;;;;;;;11.70;6.07;;;;;;;23.53;39.44;99339.53;4345790;33;33607;-88
2023/06/03 07:58:39;;;;;;;10.80;5.47;;;;;;;23.39;40.30;99336.53;4332713;33;34022;-87
2023/06/03 08:01:07;;;;;;;11.05;6.07;;;;;;;22.93;39.95;99344.34;4346323;33;33752;-90
2023/06/03 08:03:35;;;;;;;12.07;6.28;;;;;;;22.66;42.50;99346.13;4332650;33;33866;-86
2023/06/03 08:06:06;;;;;;;10.63;5.65;;;;;;;22.62;42.54;99344.50;4345880;33;33536;-89
2023/06/03 08:08:34;;;;;;;10.82;5.35;;;;;;;22.73;41.87;99350.28;4346051;33;33519;-88
2023/06/03 08:11:02;;;;;;;10.75;6.05;;;;;;;22.67;41.74;99342.53;4357036;32;34934;-86
2023/06/03 08:13:30;;;;;;;9.95;5.95;;;;;;;22.62;40.09;99346.28;4355273;32;34678;-85
2023/06/03 08:15:59;;;;;;;10.88;6.25;;;;;;;21.95;41.38;99343.97;4344234;32;33300;-88
2023/06/03 08:18:44;;;;;;;11.20;6.10;;;;;;;21.79;41.18;99349.72;4340568;33;33880;-87
2023/06/03 08:21:12;;;;;;;10.18;5.45;;;;;;;21.79;43.06;99355.00;4346059;32;34864;-88
2023/06/03 08:23:40;;;;;;;13.95;5.93;;;;;;;22.10;42.48;99354.06;4331813;33;34877;-88
2023/06/03 08:26:11;;;;;;;10.63;5.55;;;;;;;22.27;41.71;99354.41;4354040;32;32695;-86
2023/06/03 08:28:39;;;;;;;10.43;5.75;;;;;;;22.07;41.79;99351.50;4336853;33;33943;-85
2023/06/03 08:31:07;;;;;;;9.90;5.07;;;;;;;21.94;39.98;99353.69;4345384;32;34846;-86
2023/06/03 08:33:35;;;;;;;8.73;5.10;;;;;;;22.26;39.82;99357.09;4345897;32;34792;-89
2023/06/03 08:36:03;;;;;;;10.00;5.70;;;;;;;22.51;40.72;99355.41;4345863;33;33281;-89
2023/06/03 08:38:30;;;;;;;12.05;5.50;;;;;;;23.04;37.49;99355.41;4332520;33;34565;-88
2023/06/03 08:40:58;;;;;;;12.52;5.75;;;;;;;22.51;39.78;99360.69;4344615;33;35145;-85
2023/06/03 08:43:39;;;;;;;11.98;5.90;;;;;;;22.59;36.78;99357.78;4324511;32;33968;-82
2023/06/03 08:46:30;;;;;;;15.43;6.82;;;;;;;22.48;40.19;99367.84;4342110;33;33474;-89
2023/06/03 08:49:03;;;;;;;49.25;8.30;;;;;;;22.69;40.67;99371.56;4331555;32;33961;-86
2023/06/03 08:51:38;;;;;;;12.30;6.05;;;;;;;22.91;40.27;99364.66;4346446;32;34922;-83
2023/06/03 08:54:13;;;;;;;11.98;6.00;;;;;;;22.05;42.10;99377.97;4318808;33;32926;-87
2023/06/03 08:56:45;;;;;;;13.85;6.05;;;;;;;21.97;42.45;99373.81;4333389;32;33908;-86
2023/06/03 08:59:19;;;;;;;11.23;6.28;;;;;;;22.20;43.35;99376.66;4346696;32;32410;-86
2023/06/03 09:01:52;;;;;;;10.55;5.93;;;;;;;22.03;40.68;99373.63;4346731;32;34304;-86
2023/06/03 09:04:21;;;;;;;9.00;5.45;;;;;;;21.73;42.01;99371.00;4338601;32;34740;-85
2023/06/03 09:06:49;;;;;;;11.65;5.55;;;;;;;21.83;42.68;99372.47;4343023;33;34172;-86
2023/06/03 09:09:17;;;;;;;11.48;6.37;;;;;;;22.24;42.70;99377.44;4331988;33;34247;-86
2023/06/03 09:11:45;;;;;;;14.55;6.10;;;;;;;22.43;41.37;99377.72;4345555;33;34950;-90
2023/06/03 09:14:14;;;;;;;8.70;5.37;;;;;;;22.54;39.61;99380.84;4345095;33;34747;-87
2023/06/03 09:16:42;;;;;;;11.10;6.10;;;;;;;22.68;39.03;99370.69;4336229;32;32325;-84
2023/06/03 09:19:10;;;;;;;11.48;5.82;;;;;;;21.98;40.22;99375.56;4344426;32;32756;-84
2023/06/03 09:21:42;;;;;;;10.52;6.40;;;;;;;22.62;39.70;99370.91;4334254;32;33886;-84
2023/06/03 09:24:10;;;;;;;10.65;5.85;;;;;;;22.69;38.82;99375.09;4335496;32;33912;-83
2023/06/03 09:26:38;;;;;;;11.80;6.25;;;;;;;23.39;38.37;99369.13;4320629;32;33161;-85
2023/06/03 09:29:06;;;;;;;11.40;5.82;;;;;;;23.86;37.76;99363.88;4309354;33;34098;-85
2023/06/03 09:31:34;;;;;;;13.70;6.55;;;;;;;23.67;37.83;99376.94;4333083;33;33729;-82
2023/06/03 09:34:02;;;;;;;13.20;5.22;;;;;;;22.26;38.22;99378.22;4330844;33;35447;-87
2023/06/03 09:36:42;;;;;;;11.27;5.93;;;;;;;22.43;39.19;99372.44;4327227;33;32763;-84
2023/06/03 09:39:12;;;;;;;12.63;6.25;;;;;;;22.67;38.04;99373.41;4319072;33;34830;-86
2023/06/03 09:41:40;;;;;;;11.12;5.50;;;;;;;22.28;39.92;99379.06;4332390;33;34255;-85
2023/06/03 09:44:10;;;;;;;10.07;5.25;;;;;;;22.56;38.98;99381.69;4332275;33;33698;-86
2023/06/03 09:46:38;;;;;;;9.77;5.68;;;;;;;22.59;39.67;99376.28;4332033;33;33646;-86
2023/06/03 09:49:12;;;;;;;14.68;6.35;;;;;;;22.96;39.70;99367.16;4330939;33;34051;-85
2023/06/03 09:51:51;;;;;;;9.20;5.60;;;;;;;23.44;37.29;99368.97;4332019;33;35132;-86
2023/06/03 09:54:25;;;;;;;13.18;5.70;;;;;;;23.62;38.62;99364.78;4318955;33;33166;-85
2023/06/03 09:56:55;;;;;;;9.83;5.67;;;;;;;23.20;38.64;99363.66;4319462;33;33547;-83
2023/06/03 09:59:26;;;;;;;10.98;6.28;;;;;;;22.14;40.00;99368.94;4332127;33;33691;-84
2023/06/03 10:01:54;;;;;;;13.65;5.90;;;;;;;22.82;39.82;99368.47;4330823;33;35071;-86
2023/06/03 10:04:34;;;;;;;19.95;6.68;;;;;;;22.83;38.73;99371.97;4331870;33;33808;-83
2023/06/03 10:07:10;;;;;;;14.43;6.35;;;;;;;22.47;40.45;99374.06;4330734;33;34383;-88
2023/06/03 10:09:44;;;;;;;11.85;5.93;;;;;;;22.51;40.50;99373.91;4318754;33;33564;-83
2023/06/03 10:12:12;;;;;;;10.50;6.00;;;;;;;22.86;41.44;99376.28;4318927;33;32740;-89
2023/06/03 10:14:48;;;;;;;9.02;6.30;;;;;;;23.08;38.57;99364.09;4331024;33;34856;-88
2023/06/03 10:17:16;;;;;;;;;;;;;;;23.06;39.27;99363.25;4331269;33;34408;-83
2023/06/03 10:19:45;;;;;;;10.90;5.47;;;;;;;23.15;38.09;99367.38;4332326;33;34168;-86
2023/06/03 10:22:16;;;;;;;11.45;5.50;;;;;;;23.39;38.77;99368.28;4330738;33;34653;-86
2023/06/03 10:24:48;;;;;;;10.68;5.75;;;;;;;23.74;39.10;99357.25;4334103;33;33720;-83
2023/06/03 10:27:17;;;;;;;9.23;5.43;;;;;;;23.53;37.34;99358.91;4331686;33;32756;-84
2023/06/03 10:29:44;;;;;;;10.65;4.97;;;;;;;24.29;37.50;99364.84;4332952;32;33252;-84
2023/06/03 10:32:14;;;;;;;10.35;5.20;;;;;;;24.84;36.20;99351.13;4333077;33;33881;-84
2023/06/03 10:34:43;;;;;;;10.85;5.20;;;;;;;24.89;34.54;99359.75;4346574;33;33499;-85
2023/06/03 10:37:14;;;;;;;15.40;5.43;;;;;;;25.06;33.29;99356.38;4345281;33;33245;-84
2023/06/03 10:39:42;;;;;;;8.75;4.90;;;;;;;25.23;34.76;99357.41;4333106;33;34516;-84
2023/06/03 10:42:11;;;;;;;11.82;4.75;;;;;;;24.96;34.93;99363.84;4345224;33;35009;-84
2023/06/03 10:44:39;;;;;;;9.20;4.50;;;;;;;24.05;35.33;99361.37;4346316;33;33876;-86
2023/06/03 10:47:12;;;;;;;11.65;4.72;;;;;;;24.28;34.79;99358.69;4345440;33;32933;-85
2023/06/03 10:49:47;;;;;;;9.65;4.75;;;;;;;23.37;35.72;99351.59;4345149;33;33557;-83
2023/06/03 10:52:36;;;;;;;12.43;5.75;;;;;;;23.63;36.61;99359.41;4332887;33;34284;-84
2023/06/03 10:55:25;;;;;;;17.27;6.68;;;;;;;23.19;36.04;99350.50;4332670;33;33596;-86
2023/06/03 10:58:02;;;;;;;12.07;5.15;;;;;;;22.91;37.41;99359.38;4345775;32;33423;-82
2023/06/03 11:00:56;;;;;;;9.80;5.18;;;;;;;23.21;41.97;99356.56;4342777;32;34910;-83
2023/06/03 11:03:25;;;;;;;9.05;5.32;;;;;;;23.24;38.96;99356.47;4361000;32;34031;-84
2023/06/03 11:05:53;;;;;;;10.50;4.97;;;;;;;23.22;38.62;99353.87;4320975;33;34162;-83
2023/06/03 11:09:02;;;;;;;7.90;4.45;;;;;;;22.74;39.73;99359.94;4332006;32;33662;-82
2023/06/03 11:11:43;;;;;;;9.57;4.53;;;;;;;22.87;38.21;99362.16;4327368;33;33928;-82
2023/06/03 11:14:11;;;;;;;9.10;4.72;;;;;;;22.93;39.53;99361.97;4345731;32;33800;-82
2023/06/03 11:16:58;;;;;;;14.95;5.18;;;;;;;22.81;41.01;99356.16;4347568;32;34626;-83
2023/06/03 11:19:45;;;;;;;11.45;4.75;;;;;;;22.98;40.16;99354.75;4360890;32;33472;-84
2023/06/03 11:22:37;;;;;;;8.70;4.37;;;;;;;23.35;41.02;99364.88;4348700;32;34620;-84
2023/06/03 11:25:05;;;;;;;9.30;4.47;;;;;;;23.09;39.85;99352.59;4345647;32;34833;-84
2023/06/03 11:27:33;;;;;;;8.93;4.12;;;;;;;22.71;39.70;99349.44;4329241;33;32410;-85
2023/06/03 11:30:04;;;;;;;7.30;3.80;;;;;;;23.01;39.35;99349.34;4330386;33;33129;-85
2023/06/03 11:32:33;;;;;;;9.18;4.35;;;;;;;23.47;36.64;99347.69;4344671;33;34688;-86
2023/06/03 11:35:04;;;;;;;6.43;3.65;;;;;;;23.49;37.66;99345.87;4344741;33;34764;-85
2023/06/03 11:37:36;;;;;;;7.70;4.18;;;;;;;23.68;41.09;99354.88;4332402;33;34032;-84
2023/06/03 11:40:06;;;;;;;8.75;4.15;;;;;;;23.90;36.92;99359.31;4345776;33;32636;-84